sensor_id;sensor_type;location;lat;lon;timestamp;noise_LAeq;noise_LA_min;noise_LA_max;noise_LA01;noise_LA95
56099;Laerm;44276;49.534;6.378;2023-03-26T00:02:09;41.98;40.62;43.14;;
56099;Laerm;44276;49.534;6.378;2023-03-26T00:04:38;41.98;40.43;43.14;;
56099;Laerm;44276;49.534;6.378;2023-03-26T00:07:08;41.97;40.62;43.19;;
56099;Laerm;44276;49.534;6.378;2023-03-26T00:09:38;41.97;40.53;43.24;;
56099;Laerm;44276;49.534;6.378;2023-03-26T00:12:07;41.95;40.33;43.04;;
56099;Laerm;44276;49.534;6.378;2023-03-26T00:14:35;41.96;40.33;43.14;;
56099;Laerm;44276;49.534;6.378;2023-03-26T00:17:04;41.96;40.43;43.09;;
56099;Laerm;44276;49.534;6.378;2023-03-26T00:19:36;41.96;40.53;43.39;;
56099;Laerm;44276;49.534;6.378;2023-03-26T00:22:04;41.97;40.43;43.34;;
56099;Laerm;44276;49.534;6.378;2023-03-26T00:24:33;41.97;40.43;43.09;;
56099;Laerm;44276;49.534;6.378;2023-03-26T00:27:03;41.97;40.43;43.19;;
56099;Laerm;44276;49.534;6.378;2023-03-26T00:29:31;41.98;40.53;43.14;;
56099;Laerm;44276;49.534;6.378;2023-03-26T00:32:01;41.98;40.62;43.29;;
56099;Laerm;44276;49.534;6.378;2023-03-26T00:34:30;41.98;40.03;43.09;;
56099;Laerm;44276;49.534;6.378;2023-03-26T00:37:01;41.99;40.62;43.19;;
56099;Laerm;44276;49.534;6.378;2023-03-26T00:39:30;41.99;40.43;43.19;;
56099;Laerm;44276;49.534;6.378;2023-03-26T00:42:00;41.98;40.53;43.19;;
56099;Laerm;44276;49.534;6.378;2023-03-26T00:44:33;41.99;39.92;43.24;;
56099;Laerm;44276;49.534;6.378;2023-03-26T00:47:01;41.98;39.81;43.04;;
56099;Laerm;44276;49.534;6.378;2023-03-26T00:49:30;41.99;40.62;43.24;;
56099;Laerm;44276;49.534;6.378;2023-03-26T00:51:58;41.98;40.62;43.09;;
56099;Laerm;44276;49.534;6.378;2023-03-26T00:54:30;41.97;40.43;43.14;;
56099;Laerm;44276;49.534;6.378;2023-03-26T00:56:59;41.97;40.71;43.19;;
56099;Laerm;44276;49.534;6.378;2023-03-26T00:59:27;41.96;40.43;43.24;;
56099;Laerm;44276;49.534;6.378;2023-03-26T01:01:56;41.96;40.62;43.09;;
56099;Laerm;44276;49.534;6.378;2023-03-26T01:04:30;41.96;40.33;43.19;;
56099;Laerm;44276;49.534;6.378;2023-03-26T01:07:07;41.96;40.54;43.24;;
56099;Laerm;44276;49.534;6.378;2023-03-26T01:09:40;41.95;40.33;43.39;;
56099;Laerm;44276;49.534;6.378;2023-03-26T01:12:14;41.95;40.33;43.04;;
56099;Laerm;44276;49.534;6.378;2023-03-26T01:14:46;41.96;40.33;43.19;;
56099;Laerm;44276;49.534;6.378;2023-03-26T01:17:17;41.94;40.43;43.24;;
56099;Laerm;44276;49.534;6.378;2023-03-26T01:19:53;41.95;40.53;43.09;;
56099;Laerm;44276;49.534;6.378;2023-03-26T01:22:26;41.94;40.53;43.24;;
56099;Laerm;44276;49.534;6.378;2023-03-26T01:24:55;41.94;40.43;43.19;;
56099;Laerm;44276;49.534;6.378;2023-03-26T01:27:33;41.95;40.33;43.19;;
56099;Laerm;44276;49.534;6.378;2023-03-26T01:30:18;41.95;40.62;43.14;;
56099;Laerm;44276;49.534;6.378;2023-03-26T01:32:58;41.94;40.43;43.04;;
56099;Laerm;44276;49.534;6.378;2023-03-26T01:35:39;41.94;40.43;43.34;;
56099;Laerm;44276;49.534;6.378;2023-03-26T01:38:22;41.95;40.23;43.14;;
56099;Laerm;44276;49.534;6.378;2023-03-26T01:40:59;41.96;40.53;43.24;;
56099;Laerm;44276;49.534;6.378;2023-03-26T01:43:38;41.97;40.54;42.98;;
56099;Laerm;44276;49.534;6.378;2023-03-26T01:46:13;41.97;40.53;43.09;;
56099;Laerm;44276;49.534;6.378;2023-03-26T01:48:44;41.95;40.43;43.19;;
56099;Laerm;44276;49.534;6.378;2023-03-26T01:51:25;41.97;40.33;43.04;;
56099;Laerm;44276;49.534;6.378;2023-03-26T01:53:56;41.96;40.62;43.05;;
56099;Laerm;44276;49.534;6.378;2023-03-26T01:56:35;41.98;40.43;43.14;;
56099;Laerm;44276;49.534;6.378;2023-03-26T01:59:38;41.98;40.53;43.14;;
56099;Laerm;44276;49.534;6.378;2023-03-26T02:02:13;41.98;40.13;43.34;;
56099;Laerm;44276;49.534;6.378;2023-03-26T02:04:52;41.98;40.53;43.24;;
56099;Laerm;44276;49.534;6.378;2023-03-26T02:07:28;41.97;40.33;43.14;;
56099;Laerm;44276;49.534;6.378;2023-03-26T02:10:06;41.98;40.53;43.09;;
56099;Laerm;44276;49.534;6.378;2023-03-26T02:12:38;41.98;40.62;43.14;;
56099;Laerm;44276;49.534;6.378;2023-03-26T02:15:09;41.97;40.62;43.19;;
56099;Laerm;44276;49.534;6.378;2023-03-26T02:17:38;41.97;40.43;43.29;;
56099;Laerm;44276;49.534;6.378;2023-03-26T02:20:09;41.98;40.23;43.24;;
56099;Laerm;44276;49.534;6.378;2023-03-26T02:22:38;41.98;40.13;43.29;;
56099;Laerm;44276;49.534;6.378;2023-03-26T02:25:08;41.97;40.43;43.19;;
56099;Laerm;44276;49.534;6.378;2023-03-26T02:27:39;41.97;40.53;43.14;;
56099;Laerm;44276;49.534;6.378;2023-03-26T02:30:14;41.97;40.33;43.14;;
56099;Laerm;44276;49.534;6.378;2023-03-26T02:32:42;41.97;40.62;43.14;;
56099;Laerm;44276;49.534;6.378;2023-03-26T02:35:12;41.96;40.62;43.19;;
56099;Laerm;44276;49.534;6.378;2023-03-26T02:37:40;41.97;40.62;43.44;;
56099;Laerm;44276;49.534;6.378;2023-03-26T02:40:12;41.97;40.53;43.19;;
56099;Laerm;44276;49.534;6.378;2023-03-26T02:42:42;41.97;40.62;43.09;;
56099;Laerm;44276;49.534;6.378;2023-03-26T02:45:10;41.96;40.33;43.14;;
56099;Laerm;44276;49.534;6.378;2023-03-26T02:47:39;41.98;40.62;43.24;;
56099;Laerm;44276;49.534;6.378;2023-03-26T02:50:08;41.98;40.43;43.34;;
56099;Laerm;44276;49.534;6.378;2023-03-26T02:52:38;41.97;40.53;43.14;;
56099;Laerm;44276;49.534;6.378;2023-03-26T02:55:07;41.96;40.43;43.09;;
56099;Laerm;44276;49.534;6.378;2023-03-26T02:57:35;41.96;40.23;43.14;;
56099;Laerm;44276;49.534;6.378;2023-03-26T03:00:07;41.97;40.53;43.09;;
56099;Laerm;44276;49.534;6.378;2023-03-26T03:02:41;41.97;40.53;43.29;;
56099;Laerm;44276;49.534;6.378;2023-03-26T03:05:14;41.96;40.43;43.39;;
56099;Laerm;44276;49.534;6.378;2023-03-26T03:07:44;41.95;40.53;43.04;;
56099;Laerm;44276;49.534;6.378;2023-03-26T03:10:13;41.94;40.53;43.24;;
56099;Laerm;44276;49.534;6.378;2023-03-26T03:12:42;41.93;40.43;43.14;;
56099;Laerm;44276;49.534;6.378;2023-03-26T03:15:12;41.93;40.43;43.14;;
56099;Laerm;44276;49.534;6.378;2023-03-26T03:17:40;41.96;40.43;43.19;;
56099;Laerm;44276;49.534;6.378;2023-03-26T03:20:10;41.94;40.62;43.04;;
56099;Laerm;44276;49.534;6.378;2023-03-26T03:22:39;41.95;40.33;43.14;;
56099;Laerm;44276;49.534;6.378;2023-03-26T03:25:09;41.96;40.62;43.14;;
56099;Laerm;44276;49.534;6.378;2023-03-26T03:27:40;41.99;40.33;43.19;;
56099;Laerm;44276;49.534;6.378;2023-03-26T03:30:12;41.97;40.62;43.14;;
56099;Laerm;44276;49.534;6.378;2023-03-26T03:32:41;41.96;40.33;43.19;;
56099;Laerm;44276;49.534;6.378;2023-03-26T03:35:09;41.97;40.23;43.14;;
56099;Laerm;44276;49.534;6.378;2023-03-26T03:37:37;41.97;40.53;43.19;;
56099;Laerm;44276;49.534;6.378;2023-03-26T03:40:09;41.98;40.53;43.24;;
56099;Laerm;44276;49.534;6.378;2023-03-26T03:42:37;41.99;40.62;43.34;;
56099;Laerm;44276;49.534;6.378;2023-03-26T03:45:07;41.99;40.43;43.14;;
56099;Laerm;44276;49.534;6.378;2023-03-26T03:47:37;41.97;40.53;43.19;;
56099;Laerm;44276;49.534;6.378;2023-03-26T03:50:08;41.99;40.23;43.24;;
56099;Laerm;44276;49.534;6.378;2023-03-26T03:52:37;41.98;40.53;43.24;;
56099;Laerm;44276;49.534;6.378;2023-03-26T03:55:07;41.99;40.33;43.14;;
56099;Laerm;44276;49.534;6.378;2023-03-26T03:57:36;42.00;40.33;43.19;;
56099;Laerm;44276;49.534;6.378;2023-03-26T04:00:07;41.99;40.71;43.24;;
56099;Laerm;44276;49.534;6.378;2023-03-26T04:02:37;41.99;40.53;43.09;;
56099;Laerm;44276;49.534;6.378;2023-03-26T04:05:09;41.99;40.53;43.29;;
56099;Laerm;44276;49.534;6.378;2023-03-26T04:07:38;42.00;40.13;43.19;;
56099;Laerm;44276;49.534;6.378;2023-03-26T04:10:08;41.99;40.53;43.19;;
56099;Laerm;44276;49.534;6.378;2023-03-26T04:12:36;41.99;40.53;43.24;;
56099;Laerm;44276;49.534;6.378;2023-03-26T04:15:06;42.01;40.53;43.14;;
56099;Laerm;44276;49.534;6.378;2023-03-26T04:17:34;42.00;40.13;43.29;;
56099;Laerm;44276;49.534;6.378;2023-03-26T04:20:11;42.00;40.53;43.29;;
56099;Laerm;44276;49.534;6.378;2023-03-26T04:22:42;41.99;40.62;43.19;;
56099;Laerm;44276;49.534;6.378;2023-03-26T04:25:11;41.99;40.43;43.14;;
56099;Laerm;44276;49.534;6.378;2023-03-26T04:27:41;42.00;40.43;43.19;;
56099;Laerm;44276;49.534;6.378;2023-03-26T04:30:15;42.01;40.62;43.14;;
56099;Laerm;44276;49.534;6.378;2023-03-26T04:32:49;42.01;40.53;43.14;;
56099;Laerm;44276;49.534;6.378;2023-03-26T04:35:19;42.01;40.53;43.14;;
56099;Laerm;44276;49.534;6.378;2023-03-26T04:37:48;42.00;40.53;43.58;;
56099;Laerm;44276;49.534;6.378;2023-03-26T04:40:19;42.00;40.53;43.29;;
56099;Laerm;44276;49.534;6.378;2023-03-26T04:42:48;42.00;40.62;43.39;;
56099;Laerm;44276;49.534;6.378;2023-03-26T04:45:17;42.01;40.53;43.09;;
56099;Laerm;44276;49.534;6.378;2023-03-26T04:47:49;42.01;40.53;43.28;;
56099;Laerm;44276;49.534;6.378;2023-03-26T04:50:19;42.00;40.62;43.19;;
56099;Laerm;44276;49.534;6.378;2023-03-26T04:52:48;42.00;40.62;43.19;;
56099;Laerm;44276;49.534;6.378;2023-03-26T04:55:23;42.00;40.33;43.24;;
56099;Laerm;44276;49.534;6.378;2023-03-26T04:57:56;42.00;40.71;43.14;;
56099;Laerm;44276;49.534;6.378;2023-03-26T05:00:29;42.01;40.13;43.19;;
56099;Laerm;44276;49.534;6.378;2023-03-26T05:02:57;42.00;40.53;43.44;;
56099;Laerm;44276;49.534;6.378;2023-03-26T05:05:28;42.00;40.33;43.19;;
56099;Laerm;44276;49.534;6.378;2023-03-26T05:07:56;42.00;40.43;43.24;;
56099;Laerm;44276;49.534;6.378;2023-03-26T05:10:25;41.99;40.43;43.19;;
56099;Laerm;44276;49.534;6.378;2023-03-26T05:12:53;42.01;40.71;43.19;;
56099;Laerm;44276;49.534;6.378;2023-03-26T05:15:21;42.01;40.43;43.19;;
56099;Laerm;44276;49.534;6.378;2023-03-26T05:17:50;42.00;40.43;43.19;;
56099;Laerm;44276;49.534;6.378;2023-03-26T05:20:21;42.01;40.53;43.24;;
56099;Laerm;44276;49.534;6.378;2023-03-26T05:22:52;42.01;40.43;43.44;;
56099;Laerm;44276;49.534;6.378;2023-03-26T05:25:22;42.00;40.53;43.14;;
56099;Laerm;44276;49.534;6.378;2023-03-26T05:27:50;42.00;40.53;43.09;;
56099;Laerm;44276;49.534;6.378;2023-03-26T05:30:20;41.99;40.43;43.14;;
56099;Laerm;44276;49.534;6.378;2023-03-26T05:32:48;42.00;40.53;43.19;;
56099;Laerm;44276;49.534;6.378;2023-03-26T05:35:19;41.99;39.81;43.19;;
56099;Laerm;44276;49.534;6.378;2023-03-26T05:37:48;41.99;40.43;43.14;;
56099;Laerm;44276;49.534;6.378;2023-03-26T05:40:19;41.98;40.53;43.24;;
56099;Laerm;44276;49.534;6.378;2023-03-26T05:42:47;41.98;40.53;43.14;;
56099;Laerm;44276;49.534;6.378;2023-03-26T05:45:17;42.00;40.71;43.14;;
56099;Laerm;44276;49.534;6.378;2023-03-26T05:47:45;41.98;40.62;43.14;;
56099;Laerm;44276;49.534;6.378;2023-03-26T05:50:15;41.98;40.43;43.19;;
56099;Laerm;44276;49.534;6.378;2023-03-26T05:52:43;41.98;40.62;43.19;;
56099;Laerm;44276;49.534;6.378;2023-03-26T05:55:12;41.99;40.33;43.04;;
56099;Laerm;44276;49.534;6.378;2023-03-26T05:57:41;41.99;40.62;43.29;;
56099;Laerm;44276;49.534;6.378;2023-03-26T06:00:10;41.99;40.53;43.09;;
56099;Laerm;44276;49.534;6.378;2023-03-26T06:02:41;41.99;40.53;43.14;;
56099;Laerm;44276;49.534;6.378;2023-03-26T06:05:09;41.99;40.43;43.19;;
56099;Laerm;44276;49.534;6.378;2023-03-26T06:07:38;41.99;40.71;43.29;;
56099;Laerm;44276;49.534;6.378;2023-03-26T06:10:07;41.99;40.43;43.19;;
56099;Laerm;44276;49.534;6.378;2023-03-26T06:12:45;42.00;40.43;45.14;;
56099;Laerm;44276;49.534;6.378;2023-03-26T06:15:13;41.99;39.70;43.14;;
56099;Laerm;44276;49.534;6.378;2023-03-26T06:17:41;41.99;40.23;43.09;;
56099;Laerm;44276;49.534;6.378;2023-03-26T06:20:11;42.00;40.62;43.72;;
56099;Laerm;44276;49.534;6.378;2023-03-26T06:22:39;42.00;40.62;43.19;;
56099;Laerm;44276;49.534;6.378;2023-03-26T06:25:08;41.99;40.71;43.24;;
56099;Laerm;44276;49.534;6.378;2023-03-26T06:27:36;42.00;40.43;43.19;;
56099;Laerm;44276;49.534;6.378;2023-03-26T06:30:08;42.04;40.71;45.33;;
56099;Laerm;44276;49.534;6.378;2023-03-26T06:32:36;42.00;40.62;43.19;;
56099;Laerm;44276;49.534;6.378;2023-03-26T06:35:05;42.01;40.62;43.29;;
56099;Laerm;44276;49.534;6.378;2023-03-26T06:37:33;42.01;40.13;43.09;;
56099;Laerm;44276;49.534;6.378;2023-03-26T06:40:02;42.01;40.53;43.09;;
56099;Laerm;44276;49.534;6.378;2023-03-26T06:42:30;42.01;40.53;43.14;;
56099;Laerm;44276;49.534;6.378;2023-03-26T06:45:20;42.02;40.62;43.39;;
56099;Laerm;44276;49.534;6.378;2023-03-26T06:47:48;42.02;40.62;43.39;;
56099;Laerm;44276;49.534;6.378;2023-03-26T06:50:16;42.02;40.71;43.19;;
56099;Laerm;44276;49.534;6.378;2023-03-26T06:52:45;42.05;40.62;43.72;;
56099;Laerm;44276;49.534;6.378;2023-03-26T06:55:13;42.05;40.43;43.24;;
56099;Laerm;44276;49.534;6.378;2023-03-26T06:57:41;42.03;40.62;43.19;;
56099;Laerm;44276;49.534;6.378;2023-03-26T07:00:12;42.06;40.62;43.44;;
56099;Laerm;44276;49.534;6.378;2023-03-26T07:02:44;42.08;40.62;43.44;;
56099;Laerm;44276;49.534;6.378;2023-03-26T07:05:13;42.08;40.62;43.54;;
56099;Laerm;44276;49.534;6.378;2023-03-26T07:07:41;42.08;40.71;43.44;;
56099;Laerm;44276;49.534;6.378;2023-03-26T07:10:13;42.07;40.53;43.24;;
56099;Laerm;44276;49.534;6.378;2023-03-26T07:12:41;42.07;40.71;43.14;;
56099;Laerm;44276;49.534;6.378;2023-03-26T07:15:10;42.09;40.62;43.19;;
56099;Laerm;44276;49.534;6.378;2023-03-26T07:17:38;42.09;40.62;43.44;;
56099;Laerm;44276;49.534;6.378;2023-03-26T07:20:10;42.10;40.13;43.63;;
56099;Laerm;44276;49.534;6.378;2023-03-26T07:22:39;42.12;40.43;43.24;;
56099;Laerm;44276;49.534;6.378;2023-03-26T07:25:10;42.12;40.80;43.63;;
56099;Laerm;44276;49.534;6.378;2023-03-26T07:27:52;42.14;40.89;43.39;;
56099;Laerm;44276;49.534;6.378;2023-03-26T07:30:33;42.16;40.89;43.34;;
56099;Laerm;44276;49.534;6.378;2023-03-26T07:33:10;42.16;40.62;43.29;;
56099;Laerm;44276;49.534;6.378;2023-03-26T07:35:52;42.16;40.53;43.81;;
56099;Laerm;44276;49.534;6.378;2023-03-26T07:38:36;42.20;40.79;43.68;;
56099;Laerm;44276;49.534;6.378;2023-03-26T07:41:16;42.17;40.89;43.54;;
56099;Laerm;44276;49.534;6.378;2023-03-26T07:44:28;42.16;40.62;44.73;;
56099;Laerm;44276;49.534;6.378;2023-03-26T07:47:14;42.18;40.43;43.44;;
56099;Laerm;44276;49.534;6.378;2023-03-26T07:49:46;42.19;40.98;43.44;;
56099;Laerm;44276;49.534;6.378;2023-03-26T07:52:16;42.18;40.23;43.44;;
56099;Laerm;44276;49.534;6.378;2023-03-26T07:54:45;42.25;40.43;43.72;;
56099;Laerm;44276;49.534;6.378;2023-03-26T07:57:22;42.21;40.62;43.58;;
56099;Laerm;44276;49.534;6.378;2023-03-26T08:00:00;42.22;40.89;43.29;;
56099;Laerm;44276;49.534;6.378;2023-03-26T08:03:07;42.27;40.71;44.19;;
56099;Laerm;44276;49.534;6.378;2023-03-26T08:05:47;42.24;40.98;43.72;;
56099;Laerm;44276;49.534;6.378;2023-03-26T08:08:28;42.30;40.43;43.81;;
56099;Laerm;44276;49.534;6.378;2023-03-26T08:11:22;42.30;40.53;43.68;;
56099;Laerm;44276;49.534;6.378;2023-03-26T08:14:13;42.37;40.89;44.31;;
56099;Laerm;44276;49.534;6.378;2023-03-26T08:16:52;42.48;40.98;46.87;;
56099;Laerm;44276;49.534;6.378;2023-03-26T08:19:37;42.45;41.06;44.94;;
56099;Laerm;44276;49.534;6.378;2023-03-26T08:22:16;42.52;40.80;47.46;;
56099;Laerm;44276;49.534;6.378;2023-03-26T08:25:16;42.38;41.14;44.58;;
56099;Laerm;44276;49.534;6.378;2023-03-26T08:28:07;42.67;40.98;48.51;;
56099;Laerm;44276;49.534;6.378;2023-03-26T08:30:39;42.62;40.98;46.25;;
56099;Laerm;44276;49.534;6.378;2023-03-26T08:33:13;42.64;41.06;47.98;;
56099;Laerm;44276;49.534;6.378;2023-03-26T08:35:45;42.93;41.06;51.49;;
56099;Laerm;44276;49.534;6.378;2023-03-26T08:38:18;43.45;41.06;57.69;;
56099;Laerm;44276;49.534;6.378;2023-03-26T08:41:38;43.09;41.14;53.37;;
56099;Laerm;44276;49.534;6.378;2023-03-26T08:51:38;42.45;41.06;44.35;;
56099;Laerm;44276;49.534;6.378;2023-03-26T08:55:02;42.69;40.89;47.44;;
56099;Laerm;44276;49.534;6.378;2023-03-26T08:58:09;43.08;41.22;53.05;;
56099;Laerm;44276;49.534;6.378;2023-03-26T09:01:26;42.69;41.22;49.52;;
56099;Laerm;44276;49.534;6.378;2023-03-26T09:04:34;42.63;41.22;45.30;;
56099;Laerm;44276;49.534;6.378;2023-03-26T09:07:53;42.63;40.62;45.57;;
56099;Laerm;44276;49.534;6.378;2023-03-26T09:24:36;42.68;41.06;47.50;;
56099;Laerm;44276;49.534;6.378;2023-03-26T09:27:34;43.18;40.98;57.07;;
56099;Laerm;44276;49.534;6.378;2023-03-26T09:30:46;43.27;40.98;51.56;;
56099;Laerm;44276;49.534;6.378;2023-03-26T09:33:36;42.80;40.96;48.46;;
56099;Laerm;44276;49.534;6.378;2023-03-26T09:36:31;42.99;41.22;49.94;;
56099;Laerm;44276;49.534;6.378;2023-03-26T09:39:16;42.57;40.98;45.99;;
56099;Laerm;44276;49.534;6.378;2023-03-26T09:42:03;43.11;41.06;50.64;;
56099;Laerm;44276;49.534;6.378;2023-03-26T09:45:18;43.48;41.14;55.81;;
56099;Laerm;44276;49.534;6.378;2023-03-26T09:48:28;42.55;41.06;44.87;;
56099;Laerm;44276;49.534;6.378;2023-03-26T09:51:32;42.59;41.14;45.04;;
56099;Laerm;44276;49.534;6.378;2023-03-26T09:57:34;42.63;40.98;45.27;;
56099;Laerm;44276;49.534;6.378;2023-03-26T10:00:32;43.05;41.38;51.76;;
56099;Laerm;44276;49.534;6.378;2023-03-26T10:03:27;42.71;41.14;45.27;;
56099;Laerm;44276;49.534;6.378;2023-03-26T10:06:19;42.81;41.30;49.25;;
56099;Laerm;44276;49.534;6.378;2023-03-26T10:09:13;42.64;41.06;45.70;;
56099;Laerm;44276;49.534;6.378;2023-03-26T10:12:05;43.29;40.62;54.45;;
56099;Laerm;44276;49.534;6.378;2023-03-26T10:14:46;43.01;41.14;51.66;;
56099;Laerm;44276;49.534;6.378;2023-03-26T10:17:41;42.59;41.06;45.04;;
56099;Laerm;44276;49.534;6.378;2023-03-26T10:20:31;43.88;41.14;54.38;;
56099;Laerm;44276;49.534;6.378;2023-03-26T10:23:18;43.68;41.26;53.56;;
56099;Laerm;44276;49.534;6.378;2023-03-26T10:26:12;42.52;41.14;44.47;;
56099;Laerm;44276;49.534;6.378;2023-03-26T10:29:13;42.80;41.14;48.28;;
56099;Laerm;44276;49.534;6.378;2023-03-26T10:31:54;42.68;41.06;45.75;;
56099;Laerm;44276;49.534;6.378;2023-03-26T10:34:47;42.96;40.98;48.58;;
56099;Laerm;44276;49.534;6.378;2023-03-26T10:37:39;43.06;41.30;50.76;;
56099;Laerm;44276;49.534;6.378;2023-03-26T10:40:43;42.94;41.14;48.07;;
56099;Laerm;44276;49.534;6.378;2023-03-26T10:44:14;43.54;41.30;53.85;;
56099;Laerm;44276;49.534;6.378;2023-03-26T10:47:25;42.88;41.14;51.61;;
56099;Laerm;44276;49.534;6.378;2023-03-26T10:50:25;43.18;41.38;52.04;;
56099;Laerm;44276;49.534;6.378;2023-03-26T10:53:00;43.39;41.22;54.15;;
56099;Laerm;44276;49.534;6.378;2023-03-26T10:55:38;43.06;41.14;48.74;;
56099;Laerm;44276;49.534;6.378;2023-03-26T10:58:20;43.14;40.62;50.58;;
56099;Laerm;44276;49.534;6.378;2023-03-26T11:00:59;43.32;41.22;54.98;;
56099;Laerm;44276;49.534;6.378;2023-03-26T11:03:50;43.07;41.14;48.58;;
56099;Laerm;44276;49.534;6.378;2023-03-26T11:06:42;43.33;41.22;52.29;;
56099;Laerm;44276;49.534;6.378;2023-03-26T11:09:28;44.18;41.46;54.20;;
56099;Laerm;44276;49.534;6.378;2023-03-26T11:12:11;44.21;41.61;57.03;;
56099;Laerm;44276;49.534;6.378;2023-03-26T11:15:12;42.89;41.38;48.31;;
56099;Laerm;44276;49.534;6.378;2023-03-26T11:18:00;43.63;41.06;60.35;;
56099;Laerm;44276;49.534;6.378;2023-03-26T11:20:39;43.17;41.06;50.03;;
56099;Laerm;44276;49.534;6.378;2023-03-26T11:23:28;42.79;40.80;46.30;;
56099;Laerm;44276;49.534;6.378;2023-03-26T11:26:09;43.23;41.22;49.03;;
56099;Laerm;44276;49.534;6.378;2023-03-26T11:29:19;42.98;41.22;49.50;;
56099;Laerm;44276;49.534;6.378;2023-03-26T11:32:06;43.36;41.38;50.92;;
56099;Laerm;44276;49.534;6.378;2023-03-26T11:34:40;45.30;41.38;58.88;;
56099;Laerm;44276;49.534;6.378;2023-03-26T11:37:28;43.12;41.14;50.09;;
56099;Laerm;44276;49.534;6.378;2023-03-26T11:40:13;44.01;41.14;54.42;;
56099;Laerm;44276;49.534;6.378;2023-03-26T11:42:59;43.37;41.30;53.56;;
56099;Laerm;44276;49.534;6.378;2023-03-26T11:45:34;47.67;41.14;61.61;;
56099;Laerm;44276;49.534;6.378;2023-03-26T11:48:07;48.36;41.38;60.11;;
56099;Laerm;44276;49.534;6.378;2023-03-26T11:50:44;49.89;41.30;64.20;;
56099;Laerm;44276;49.534;6.378;2023-03-26T11:53:17;46.77;41.22;61.69;;
56099;Laerm;44276;49.534;6.378;2023-03-26T11:55:58;46.05;41.14;59.41;;
56099;Laerm;44276;49.534;6.378;2023-03-26T11:58:37;44.73;40.98;59.69;;
56099;Laerm;44276;49.534;6.378;2023-03-26T12:01:14;44.35;40.80;58.82;;
56099;Laerm;44276;49.534;6.378;2023-03-26T12:03:56;42.41;40.89;46.43;;
56099;Laerm;44276;49.534;6.378;2023-03-26T12:06:28;42.95;41.06;48.40;;
56099;Laerm;44276;49.534;6.378;2023-03-26T12:08:59;42.50;40.71;46.45;;
56099;Laerm;44276;49.534;6.378;2023-03-26T12:11:30;42.34;40.89;45.11;;
56099;Laerm;44276;49.534;6.378;2023-03-26T12:14:03;42.36;40.71;46.23;;
56099;Laerm;44276;49.534;6.378;2023-03-26T12:16:33;42.09;40.53;43.44;;
56099;Laerm;44276;49.534;6.378;2023-03-26T12:19:16;42.64;40.62;48.23;;
56099;Laerm;44276;49.534;6.378;2023-03-26T12:21:48;42.63;40.53;53.61;;
56099;Laerm;44276;49.534;6.378;2023-03-26T12:24:28;47.07;40.80;64.82;;
56099;Laerm;44276;49.534;6.378;2023-03-26T12:27:01;44.44;40.43;61.33;;
56099;Laerm;44276;49.534;6.378;2023-03-26T12:29:30;43.27;40.62;52.69;;
56099;Laerm;44276;49.534;6.378;2023-03-26T12:32:08;45.13;40.33;61.13;;
56099;Laerm;44276;49.534;6.378;2023-03-26T12:34:40;42.31;40.33;51.64;;
56099;Laerm;44276;49.534;6.378;2023-03-26T12:37:34;42.18;40.33;46.15;;
56099;Laerm;44276;49.534;6.378;2023-03-26T12:40:26;42.36;40.63;45.23;;
56099;Laerm;44276;49.534;6.378;2023-03-26T12:42:58;42.47;41.06;47.02;;
56099;Laerm;44276;49.534;6.378;2023-03-26T12:45:53;42.52;40.62;45.60;;
56099;Laerm;44276;49.534;6.378;2023-03-26T12:48:41;42.66;41.06;47.08;;
56099;Laerm;44276;49.534;6.378;2023-03-26T12:51:29;42.62;41.14;44.87;;
56099;Laerm;44276;49.534;6.378;2023-03-26T12:54:20;42.80;41.06;48.43;;
56099;Laerm;44276;49.534;6.378;2023-03-26T12:57:14;43.24;41.22;54.46;;
56099;Laerm;44276;49.534;6.378;2023-03-26T13:00:23;43.17;41.38;49.69;;
56099;Laerm;44276;49.534;6.378;2023-03-26T13:03:34;44.04;41.38;60.12;;
56099;Laerm;44276;49.534;6.378;2023-03-26T13:06:39;42.56;40.62;47.88;;
56099;Laerm;44276;49.534;6.378;2023-03-26T13:09:54;42.61;40.71;48.46;;
56099;Laerm;44276;49.534;6.378;2023-03-26T13:12:38;44.37;41.14;55.48;;
56099;Laerm;44276;49.534;6.378;2023-03-26T13:15:31;43.20;41.22;52.40;;
56099;Laerm;44276;49.534;6.378;2023-03-26T13:18:21;43.45;41.06;51.41;;
56099;Laerm;44276;49.534;6.378;2023-03-26T13:21:18;42.96;40.71;52.00;;
56099;Laerm;44276;49.534;6.378;2023-03-26T13:23:59;43.18;40.98;50.85;;
56099;Laerm;44276;49.534;6.378;2023-03-26T13:26:55;44.57;40.89;64.50;;
56099;Laerm;44276;49.534;6.378;2023-03-26T13:29:35;43.73;40.53;54.61;;
56099;Laerm;44276;49.534;6.378;2023-03-26T13:32:16;44.06;40.89;54.69;;
56099;Laerm;44276;49.534;6.378;2023-03-26T13:35:07;48.11;40.98;65.38;;
56099;Laerm;44276;49.534;6.378;2023-03-26T13:37:48;46.97;40.89;65.42;;
56099;Laerm;44276;49.534;6.378;2023-03-26T13:40:31;59.55;40.98;86.11;;
56099;Laerm;44276;49.534;6.378;2023-03-26T13:43:30;50.49;40.33;68.95;;
56099;Laerm;44276;49.534;6.378;2023-03-26T13:46:15;45.14;40.71;61.08;;
56099;Laerm;44276;49.534;6.378;2023-03-26T13:48:54;43.05;40.62;55.04;;
56099;Laerm;44276;49.534;6.378;2023-03-26T13:51:27;41.80;40.13;46.66;;
56099;Laerm;44276;49.534;6.378;2023-03-26T13:54:06;41.78;40.23;43.94;;
56099;Laerm;44276;49.534;6.378;2023-03-26T13:56:44;42.20;40.23;54.46;;
56099;Laerm;44276;49.534;6.378;2023-03-26T13:59:18;42.27;40.43;48.52;;
56099;Laerm;44276;49.534;6.378;2023-03-26T14:01:55;42.02;40.43;45.51;;
56099;Laerm;44276;49.534;6.378;2023-03-26T14:05:07;41.97;40.33;43.99;;
56099;Laerm;44276;49.534;6.378;2023-03-26T14:07:45;41.99;40.62;43.14;;
56099;Laerm;44276;49.534;6.378;2023-03-26T14:10:20;42.03;40.62;43.39;;
56099;Laerm;44276;49.534;6.378;2023-03-26T14:12:57;42.09;40.43;43.49;;
56099;Laerm;44276;49.534;6.378;2023-03-26T14:15:31;42.58;40.71;50.83;;
56099;Laerm;44276;49.534;6.378;2023-03-26T14:18:23;48.40;40.71;73.47;;
56099;Laerm;44276;49.534;6.378;2023-03-26T14:21:19;62.13;41.06;97.73;;
56099;Laerm;44276;49.534;6.378;2023-03-26T14:24:33;43.50;40.13;58.05;;
56099;Laerm;44276;49.534;6.378;2023-03-26T14:27:37;41.84;40.23;47.90;;
56099;Laerm;44276;49.534;6.378;2023-03-26T14:34:15;42.03;40.23;46.76;;
56099;Laerm;44276;49.534;6.378;2023-03-26T14:37:26;41.77;40.13;51.88;;
56099;Laerm;44276;49.534;6.378;2023-03-26T14:40:30;41.78;40.03;44.47;;
56099;Laerm;44276;49.534;6.378;2023-03-26T14:44:12;41.78;40.23;43.77;;
56099;Laerm;44276;49.534;6.378;2023-03-26T14:47:05;41.78;40.13;43.29;;
56099;Laerm;44276;49.534;6.378;2023-03-26T14:50:22;41.79;40.33;47.90;;
56099;Laerm;44276;49.534;6.378;2023-03-26T14:53:02;41.82;40.33;43.04;;
56099;Laerm;44276;49.534;6.378;2023-03-26T14:56:02;41.84;40.62;43.19;;
56099;Laerm;44276;49.534;6.378;2023-03-26T14:59:25;41.88;40.23;43.09;;
56099;Laerm;44276;49.534;6.378;2023-03-26T15:02:41;41.92;40.33;43.34;;
56099;Laerm;44276;49.534;6.378;2023-03-26T15:06:03;41.91;40.43;43.24;;
56099;Laerm;44276;49.534;6.378;2023-03-26T15:12:10;42.01;40.43;43.34;;
56099;Laerm;44276;49.534;6.378;2023-03-26T15:23:05;42.09;40.71;43.34;;
56099;Laerm;44276;49.534;6.378;2023-03-26T15:26:11;42.12;40.80;43.90;;
56099;Laerm;44276;49.534;6.378;2023-03-26T15:29:32;42.20;40.33;45.11;;
56099;Laerm;44276;49.534;6.378;2023-03-26T15:32:50;42.16;40.53;49.24;;
56099;Laerm;44276;49.534;6.378;2023-03-26T15:39:12;44.70;40.33;68.59;;